Time;durP1;ratioP1;P1;durP2;ratioP2;P2;SDS_P1;SDS_P2;PMS_P1;PMS_P2;Temp;Humidity;BMP_temperature;BMP_pressure;BME280_temperature;BME280_humidity;BME280_pressure;Samples;Min_cycle;Max_cycle;Signal;HPM_P1;HPM_P2
2022/03/25 00:00:49;;;;;;;47.73;36.40;;;4.90;1.00;;;;;;4978526;28;20491;-55
2022/03/25 00:03:19;;;;;;;49.77;35.07;;;4.90;1.00;;;;;;4978884;28;20493;-57
2022/03/25 00:08:22;;;;;;;50.07;36.30;;;4.90;1.00;;;;;;4739445;23;20497;-57
2022/03/25 00:10:49;;;;;;;49.80;35.03;;;4.90;1.00;;;;;;4979597;28;20920;-57
2022/03/25 00:13:21;;;;;;;47.30;36.00;;;4.80;1.00;;;;;;4977923;28;20525;-56
2022/03/25 00:15:51;;;;;;;49.87;37.27;;;4.80;1.00;;;;;;4978589;28;20544;-55
2022/03/25 00:18:23;;;;;;;51.33;36.83;;;4.80;1.00;;;;;;4979142;28;20469;-57
2022/03/25 00:20:51;;;;;;;54.40;38.53;;;4.80;1.00;;;;;;4978711;28;20509;-57
2022/03/25 00:23:18;;;;;;;48.10;33.93;;;4.70;1.00;;;;;;4979190;28;20502;-56
2022/03/25 00:25:45;;;;;;;48.80;35.73;;;4.60;1.00;;;;;;4977943;28;20472;-56
2022/03/25 00:28:12;;;;;;;51.03;36.07;;;4.60;1.00;;;;;;4978874;28;20465;-57
2022/03/25 00:30:39;;;;;;;49.13;36.20;;;4.60;1.00;;;;;;4978563;28;20470;-57
2022/03/25 00:33:11;;;;;;;53.83;37.00;;;4.60;1.00;;;;;;4979263;28;20461;-57
2022/03/25 00:35:38;;;;;;;49.83;37.70;;;4.50;1.00;;;;;;4978618;28;20903;-56
2022/03/25 00:38:09;;;;;;;52.27;37.93;;;4.50;1.00;;;;;;4978245;28;20549;-56
2022/03/25 00:40:39;;;;;;;50.13;35.37;;;4.60;1.00;;;;;;4978938;28;20462;-55
2022/03/25 00:43:06;;;;;;;50.00;37.63;;;4.50;1.00;;;;;;4978782;28;20560;-55
2022/03/25 00:45:35;;;;;;;57.87;37.70;;;4.50;1.00;;;;;;4978492;28;20560;-57
2022/03/25 00:48:05;;;;;;;54.90;36.67;;;4.50;1.00;;;;;;4977410;28;20470;-56
2022/03/25 00:50:34;;;;;;;49.80;36.13;;;4.50;1.00;;;;;;4979156;28;20745;-57
2022/03/25 00:53:03;;;;;;;50.30;36.77;;;4.40;1.00;;;;;;4978431;28;20466;-56
2022/03/25 00:55:35;;;;;;;50.17;36.70;;;4.40;1.00;;;;;;4978238;28;20816;-55
2022/03/25 00:58:02;;;;;;;54.80;38.77;;;4.40;1.00;;;;;;4977238;28;20484;-58
2022/03/25 01:00:29;;;;;;;49.20;36.57;;;4.40;1.00;;;;;;4978532;28;20470;-56
2022/03/25 01:02:56;;;;;;;49.60;36.97;;;4.40;1.00;;;;;;4977760;28;20485;-57
2022/03/25 01:05:23;;;;;;;45.93;36.03;;;4.30;1.00;;;;;;4977373;28;20921;-56
2022/03/25 01:08:01;;;;;;;51.37;36.73;;;4.20;1.00;;;;;;4978002;28;20789;-54
2022/03/25 01:10:28;;;;;;;52.83;35.83;;;4.10;1.00;;;;;;4978588;28;20896;-56
2022/03/25 01:12:55;;;;;;;59.90;35.97;;;4.00;1.00;;;;;;4978212;28;20898;-57
2022/03/25 01:15:22;;;;;;;51.03;35.83;;;4.00;1.00;;;;;;4978686;28;20814;-57
2022/03/25 01:17:50;;;;;;;44.77;36.23;;;3.90;1.00;;;;;;4978081;28;20512;-56
2022/03/25 01:20:18;;;;;;;45.53;35.67;;;3.90;1.00;;;;;;4978109;28;20806;-57
2022/03/25 01:22:47;;;;;;;46.77;34.80;;;3.90;1.00;;;;;;4978359;28;20969;-56
2022/03/25 01:25:20;;;;;;;48.87;35.07;;;3.90;1.00;;;;;;4978438;28;20469;-57
2022/03/25 01:27:53;;;;;;;51.47;38.00;;;3.80;1.00;;;;;;4978202;28;20565;-56
2022/03/25 01:30:22;;;;;;;50.87;35.50;;;3.80;1.00;;;;;;4977698;28;20470;-57
2022/03/25 01:32:56;;;;;;;52.70;36.30;;;3.80;1.00;;;;;;4978011;28;20468;-57
2022/03/25 01:35:25;;;;;;;56.70;37.30;;;3.80;1.00;;;;;;4978322;28;20494;-57
2022/03/25 01:37:57;;;;;;;46.33;34.10;;;3.90;1.00;;;;;;4978116;28;20520;-57
2022/03/25 01:40:28;;;;;;;48.30;34.00;;;3.80;1.00;;;;;;4977530;28;20466;-56
2022/03/25 01:42:55;;;;;;;54.70;36.17;;;3.70;1.00;;;;;;4978313;28;20969;-57
2022/03/25 01:45:32;;;;;;;47.30;34.60;;;3.60;1.00;;;;;;4958324;29;20470;-56
2022/03/25 01:47:59;;;;;;;46.73;34.23;;;3.60;1.00;;;;;;4959079;29;20917;-57
2022/03/25 01:50:32;;;;;;;53.93;36.90;;;3.50;1.00;;;;;;4968741;28;20865;-56
2022/03/25 01:53:17;;;;;;;51.03;35.63;;;3.50;1.00;;;;;;4978051;28;20470;-57
2022/03/25 01:55:51;;;;;;;53.37;34.90;;;3.50;1.00;;;;;;4978013;28;20497;-57
2022/03/25 01:58:28;;;;;;;52.20;36.20;;;3.40;1.00;;;;;;4978794;28;20846;-56
2022/03/25 02:00:59;;;;;;;52.80;35.90;;;3.40;1.00;;;;;;4980367;28;20885;-57
2022/03/25 02:03:32;;;;;;;50.80;36.67;;;3.40;1.00;;;;;;4980495;28;20965;-56
2022/03/25 02:05:59;;;;;;;58.67;35.83;;;3.40;1.00;;;;;;4980989;28;20560;-57
2022/03/25 02:08:29;;;;;;;54.70;35.47;;;3.40;1.00;;;;;;4981180;28;20957;-57
2022/03/25 02:11:02;;;;;;;44.67;34.10;;;3.40;1.00;;;;;;4980819;28;20490;-57
2022/03/25 02:13:31;;;;;;;49.80;35.03;;;3.30;1.00;;;;;;4981174;28;20458;-55
2022/03/25 02:15:58;;;;;;;57.10;36.53;;;3.20;1.00;;;;;;4981670;28;20472;-57
2022/03/25 02:18:27;;;;;;;52.90;33.43;;;3.20;1.00;;;;;;4981382;28;20474;-57
2022/03/25 02:20:55;;;;;;;46.27;35.07;;;3.20;1.00;;;;;;4981423;28;20470;-56
2022/03/25 02:23:23;;;;;;;49.50;34.43;;;3.20;1.00;;;;;;4981493;28;20540;-57
2022/03/25 02:25:53;;;;;;;49.80;35.13;;;3.20;1.00;;;;;;4980488;28;20894;-57
2022/03/25 02:28:24;;;;;;;46.90;33.63;;;3.10;1.00;;;;;;4981204;28;20466;-55
2022/03/25 02:30:51;;;;;;;45.27;34.53;;;3.10;1.00;;;;;;4980956;28;20509;-54
2022/03/25 02:33:19;;;;;;;52.10;33.97;;;3.10;1.00;;;;;;4981366;28;20941;-57
2022/03/25 02:35:48;;;;;;;46.87;33.27;;;3.10;1.00;;;;;;4980425;28;20568;-56
2022/03/25 02:38:20;;;;;;;49.50;33.70;;;3.00;1.00;;;;;;4981069;28;20473;-57
2022/03/25 02:40:54;;;;;;;52.63;36.07;;;2.90;1.00;;;;;;4961213;29;20515;-56
2022/03/25 02:43:23;;;;;;;50.07;35.00;;;3.00;1.00;;;;;;4962041;29;20494;-57
2022/03/25 02:45:50;;;;;;;50.00;33.90;;;3.00;1.00;;;;;;4972341;28;21044;-58
2022/03/25 02:48:28;;;;;;;51.13;36.60;;;2.90;1.00;;;;;;4981028;28;20504;-57
2022/03/25 02:50:57;;;;;;;49.40;33.40;;;2.90;1.00;;;;;;4980719;28;20466;-57
2022/03/25 02:53:24;;;;;;;49.93;33.83;;;2.90;1.00;;;;;;4980242;28;20470;-57
2022/03/25 02:55:55;;;;;;;50.40;35.87;;;3.00;1.00;;;;;;4979768;28;20520;-57
2022/03/25 02:58:25;;;;;;;43.07;33.27;;;3.00;1.00;;;;;;4980700;28;20473;-56
2022/03/25 03:00:58;;;;;;;49.43;33.20;;;3.10;1.00;;;;;;4979666;28;20476;-56
2022/03/25 03:03:25;;;;;;;45.37;31.20;;;3.00;1.00;;;;;;4980367;28;20500;-57
2022/03/25 03:05:56;;;;;;;48.67;33.77;;;3.10;1.00;;;;;;4979795;28;20528;-57
2022/03/25 03:08:26;;;;;;;47.30;33.27;;;3.10;1.00;;;;;;4980623;28;20528;-57
2022/03/25 03:10:55;;;;;;;44.60;33.03;;;3.20;1.00;;;;;;4979779;28;20470;-57
2022/03/25 03:13:27;;;;;;;46.83;33.47;;;3.00;1.00;;;;;;4980130;28;20466;-57
2022/03/25 03:15:57;;;;;;;48.97;31.63;;;2.90;1.00;;;;;;4979561;28;20469;-57
2022/03/25 03:18:24;;;;;;;46.47;31.47;;;2.90;1.00;;;;;;4980543;28;20886;-56
2022/03/25 03:20:51;;;;;;;51.97;35.53;;;2.80;1.00;;;;;;4980301;28;20465;-56
2022/03/25 03:23:26;;;;;;;46.87;32.77;;;2.70;1.00;;;;;;4980616;28;20497;-57
2022/03/25 03:25:57;;;;;;;46.00;33.20;;;2.70;1.00;;;;;;4979775;28;20469;-56
2022/03/25 03:28:24;;;;;;;44.70;32.80;;;2.60;1.00;;;;;;4979511;28;20517;-57
2022/03/25 03:30:51;;;;;;;49.70;32.70;;;2.60;1.00;;;;;;4980332;28;20529;-57
2022/03/25 03:33:21;;;;;;;49.50;32.53;;;2.60;1.00;;;;;;4980328;28;20810;-57
2022/03/25 03:35:51;;;;;;;49.57;33.13;;;2.60;1.00;;;;;;4979894;28;20748;-56
2022/03/25 03:38:18;;;;;;;52.23;33.57;;;2.60;1.00;;;;;;4979114;28;20520;-57
2022/03/25 03:40:56;;;;;;;46.73;33.07;;;2.60;1.00;;;;;;4979811;28;20485;-57
2022/03/25 03:43:25;;;;;;;51.27;31.87;;;2.60;1.00;;;;;;4979672;28;20493;-56
2022/03/25 03:45:54;;;;;;;49.97;33.50;;;2.60;1.00;;;;;;4979666;28;20898;-57
2022/03/25 03:48:26;;;;;;;47.00;32.03;;;2.60;1.00;;;;;;4979289;28;20473;-57
2022/03/25 03:50:52;;;;;;;50.40;30.97;;;2.50;1.00;;;;;;4980098;28;20522;-55
2022/03/25 03:53:24;;;;;;;48.17;32.80;;;2.50;1.00;;;;;;4978819;28;20462;-57
2022/03/25 03:55:51;;;;;;;45.97;32.00;;;2.50;1.00;;;;;;4979637;28;20501;-56
2022/03/25 03:58:18;;;;;;;45.30;31.00;;;2.40;1.00;;;;;;4978865;28;20527;-56
2022/03/25 04:00:50;;;;;;;43.07;31.50;;;2.40;1.00;;;;;;4979620;28;20474;-57
2022/03/25 04:03:17;;;;;;;50.90;32.47;;;2.30;1.00;;;;;;4979341;28;20884;-57
2022/03/25 04:05:45;;;;;;;42.47;30.93;;;2.40;1.00;;;;;;4979601;28;20960;-57
2022/03/25 04:08:12;;;;;;;48.50;32.00;;;2.40;11.20;;;;;;4978986;28;20497;-57
2022/03/25 04:10:41;;;;;;;43.03;30.10;;;2.40;16.90;;;;;;4959392;29;20462;-56
2022/03/25 04:13:08;;;;;;;50.13;32.33;;;2.40;4.80;;;;;;4965821;28;20465;-57
2022/03/25 04:15:38;;;;;;;47.00;31.70;;;2.40;1.00;;;;;;4979192;28;20905;-57
2022/03/25 04:18:08;;;;;;;43.30;30.37;;;2.40;2.30;;;;;;4979091;28;20901;-57
2022/03/25 04:20:38;;;;;;;47.70;32.47;;;2.30;1.00;;;;;;4978295;28;20473;-57
2022/03/25 04:23:12;;;;;;;47.60;30.93;;;2.30;12.70;;;;;;4978189;28;20489;-57
2022/03/25 04:25:41;;;;;;;49.53;33.40;;;2.30;1.00;;;;;;4979251;28;20469;-57
2022/03/25 04:28:09;;;;;;;46.07;31.50;;;2.20;1.00;;;;;;4979189;28;20905;-57
2022/03/25 04:30:40;;;;;;;43.17;30.70;;;2.30;1.00;;;;;;4978337;28;20544;-57
2022/03/25 04:33:11;;;;;;;43.43;32.00;;;2.20;1.00;;;;;;4979329;28;20955;-57
2022/03/25 04:35:38;;;;;;;44.73;31.53;;;2.20;1.00;;;;;;4978444;28;20830;-57
2022/03/25 04:38:08;;;;;;;45.00;31.17;;;2.10;5.10;;;;;;4979187;28;20920;-57
2022/03/25 04:40:39;;;;;;;44.73;31.00;;;2.10;21.90;;;;;;4977864;28;20849;-57
2022/03/25 04:43:06;;;;;;;50.47;32.10;;;2.10;30.40;;;;;;4978215;28;20485;-57
2022/03/25 04:45:36;;;;;;;48.50;30.67;;;2.10;18.90;;;;;;4978252;28;20468;-58
2022/03/25 04:48:04;;;;;;;46.30;31.40;;;2.00;25.50;;;;;;4978978;28;20501;-56
2022/03/25 04:50:32;;;;;;;43.83;32.20;;;2.00;21.20;;;;;;4978168;28;20469;-57
2022/03/25 04:53:05;;;;;;;43.20;29.90;;;2.00;19.50;;;;;;4978602;28;20460;-57
2022/03/25 04:55:32;;;;;;;47.60;32.20;;;1.90;14.00;;;;;;4976961;28;20533;-56
2022/03/25 04:57:59;;;;;;;44.20;29.83;;;1.90;34.60;;;;;;4978483;28;20931;-57
2022/03/25 05:00:28;;;;;;;48.60;31.73;;;1.90;80.40;;;;;;4977896;28;20469;-56
2022/03/25 05:02:58;;;;;;;47.70;30.87;;;1.80;26.40;;;;;;4959295;29;20930;-57
2022/03/25 05:05:27;;;;;;;45.00;31.90;;;2.00;84.00;;;;;;4963917;28;20523;-56
2022/03/25 05:07:56;;;;;;;51.90;31.27;;;1.90;42.20;;;;;;4978140;28;20497;-57
2022/03/25 05:10:25;;;;;;;48.70;31.27;;;1.90;92.70;;;;;;4973085;28;20478;-58
2022/03/25 05:12:52;;;;;;;57.73;31.17;;;1.80;99.90;;;;;;4985656;28;20472;-57
2022/03/25 05:15:19;;;;;;;46.10;31.83;;;1.80;99.90;;;;;;4995348;28;20964;-55
2022/03/25 05:17:47;;;;;;;47.50;31.93;;;1.80;99.90;;;;;;4980541;28;20527;-57
2022/03/25 05:20:16;;;;;;;44.40;30.17;;;1.80;99.90;;;;;;4988708;28;20467;-56
2022/03/25 05:22:43;;;;;;;48.20;30.67;;;1.80;99.90;;;;;;4996600;28;20530;-56
2022/03/25 05:25:12;;;;;;;44.97;29.80;;;1.80;99.90;;;;;;4977913;28;20468;-57
2022/03/25 05:27:49;;;;;;;48.77;31.73;;;1.80;99.90;;;;;;4984620;28;20799;-57
2022/03/25 05:30:25;;;;;;;48.90;30.80;;;1.80;99.90;;;;;;4978228;28;21151;-57
2022/03/25 05:32:54;;;;;;;42.17;28.97;;;1.70;99.90;;;;;;4976293;28;20468;-57
2022/03/25 05:35:22;;;;;;;42.67;29.87;;;1.80;99.90;;;;;;4977344;28;20898;-57
2022/03/25 05:37:50;;;;;;;44.43;30.07;;;1.80;99.90;;;;;;4995580;28;20805;-56
2022/03/25 05:40:24;;;;;;;45.93;30.63;;;1.80;99.90;;;;;;4996105;28;20914;-56
2022/03/25 05:42:51;;;;;;;52.57;31.37;;;1.80;99.90;;;;;;4994102;28;20554;-57
2022/03/25 05:45:24;;;;;;;46.57;30.43;;;1.90;99.90;;;;;;4997769;28;20463;-57
2022/03/25 05:47:54;;;;;;;43.50;28.53;;;1.80;99.90;;;;;;4999576;28;20522;-56
2022/03/25 05:50:22;;;;;;;46.60;30.13;;;1.90;99.90;;;;;;4981950;28;20477;-57
2022/03/25 05:52:50;;;;;;;46.03;28.97;;;1.90;99.90;;;;;;4986519;28;20472;-57
2022/03/25 05:55:19;;;;;;;46.53;29.77;;;2.00;99.90;;;;;;4999842;28;20522;-57
2022/03/25 05:57:47;;;;;;;40.63;28.90;;;2.00;99.90;;;;;;5000474;28;20475;-57
2022/03/25 06:00:17;;;;;;;47.50;29.67;;;2.20;99.90;;;;;;4987232;28;20528;-56
2022/03/25 06:02:49;;;;;;;44.03;30.03;;;2.20;99.90;;;;;;4979772;28;20563;-57
2022/03/25 06:05:18;;;;;;;47.70;30.80;;;2.30;99.90;;;;;;4980552;28;20527;-56
2022/03/25 06:07:46;;;;;;;40.53;28.13;;;2.40;99.90;;;;;;4988728;28;20493;-57
2022/03/25 06:10:17;;;;;;;45.10;31.03;;;2.50;99.90;;;;;;4986345;28;20466;-57
2022/03/25 06:12:46;;;;;;;42.47;28.77;;;2.60;99.90;;;;;;4999883;28;20570;-57
2022/03/25 06:15:16;;;;;;;44.23;28.40;;;2.70;99.90;;;;;;4982430;28;20461;-56
2022/03/25 06:17:45;;;;;;;45.60;29.37;;;2.80;99.90;;;;;;4999402;28;20508;-57
2022/03/25 06:20:20;;;;;;;48.43;29.20;;;3.00;95.10;;;;;;4995862;28;20525;-57
2022/03/25 06:22:52;;;;;;;41.90;28.53;;;3.20;42.60;;;;;;4984471;28;20500;-57
2022/03/25 06:25:22;;;;;;;44.60;29.37;;;3.30;12.10;;;;;;4993157;28;20543;-58
2022/03/25 06:27:54;;;;;;;44.63;28.83;;;3.50;1.00;;;;;;5000489;28;20461;-57
2022/03/25 06:30:27;;;;;;;40.00;28.30;;;3.60;1.00;;;;;;4998354;28;20535;-56
2022/03/25 06:32:55;;;;;;;43.13;28.70;;;3.80;1.00;;;;;;4987123;28;20503;-56
2022/03/25 06:35:25;;;;;;;49.63;30.50;;;4.10;1.00;;;;;;4992234;28;20544;-57
2022/03/25 06:37:52;;;;;;;47.77;28.60;;;4.30;1.00;;;;;;4985570;28;20465;-57
2022/03/25 06:40:21;;;;;;;42.60;27.57;;;4.60;1.00;;;;;;4981232;28;20547;-59
2022/03/25 06:42:48;;;;;;;39.40;27.87;;;4.70;1.00;;;;;;4985987;28;20929;-60
2022/03/25 06:45:24;;;;;;;38.77;28.10;;;4.90;1.00;;;;;;4995922;28;20547;-60
2022/03/25 06:47:57;;;;;;;42.90;28.13;;;5.10;1.00;;;;;;4988755;28;20469;-60
2022/03/25 06:50:25;;;;;;;38.90;26.70;;;5.30;1.00;;;;;;5000816;28;20465;-60
2022/03/25 06:52:57;;;;;;;45.23;29.33;;;5.60;1.00;;;;;;4993145;28;20480;-60
2022/03/25 06:55:28;;;;;;;42.60;27.33;;;5.70;1.00;;;;;;5000167;28;20564;-60
2022/03/25 06:57:56;;;;;;;41.87;28.37;;;6.20;1.00;;;;;;4991850;28;20464;-59
2022/03/25 07:00:24;;;;;;;35.67;27.03;;;6.60;1.00;;;;;;5000542;28;20469;-60
2022/03/25 07:02:56;;;;;;;45.27;31.23;;;7.00;1.00;;;;;;4989796;28;20883;-60
2022/03/25 07:05:24;;;;;;;44.43;30.80;;;7.20;1.00;;;;;;4992920;28;20551;-60
2022/03/25 07:07:57;;;;;;;42.50;29.40;;;7.50;99.90;;;;;;5000526;28;20591;-59
2022/03/25 07:10:28;;;;;;;42.70;29.00;;;7.70;99.90;;;;;;5001267;28;20464;-60
2022/03/25 07:12:55;;;;;;;43.13;29.73;;;7.90;99.90;;;;;;4989277;28;20763;-60
2022/03/25 07:15:24;;;;;;;42.90;28.93;;;8.10;99.90;;;;;;4979225;28;20465;-61
2022/03/25 07:18:01;;;;;;;44.37;30.03;;;8.40;99.90;;;;;;4993613;28;20762;-61
2022/03/25 07:20:30;;;;;;;36.93;28.77;;;8.50;99.90;;;;;;4999234;28;20890;-61
2022/03/25 07:22:57;;;;;;;41.90;30.67;;;8.70;99.90;;;;;;4994957;28;20524;-61
2022/03/25 07:25:31;;;;;;;42.00;29.00;;;9.00;99.90;;;;;;4996932;28;20496;-61
2022/03/25 07:28:01;;;;;;;40.43;29.40;;;9.20;99.90;;;;;;4990022;28;20528;-61
2022/03/25 07:30:29;;;;;;;38.40;28.27;;;9.40;99.90;;;;;;4997912;28;20917;-61
2022/03/25 07:33:02;;;;;;;36.33;28.43;;;9.70;99.90;;;;;;4999080;28;20465;-61
2022/03/25 07:35:29;;;;;;;38.83;28.90;;;9.90;99.90;;;;;;4995807;28;20877;-61
2022/03/25 07:37:56;;;;;;;41.17;28.60;;;10.20;99.90;;;;;;4989329;28;20880;-61
2022/03/25 07:40:26;;;;;;;38.77;28.63;;;10.40;99.90;;;;;;4981446;28;20473;-61
2022/03/25 07:42:53;;;;;;;38.60;27.53;;;10.50;99.90;;;;;;5002105;28;20511;-61
2022/03/25 07:45:20;;;;;;;37.53;29.43;;;10.90;99.90;;;;;;4983960;28;20498;-61
2022/03/25 07:47:49;;;;;;;39.23;26.40;;;11.20;99.90;;;;;;4999032;28;20516;-61
2022/03/25 07:50:20;;;;;;;36.33;26.77;;;11.40;99.90;;;;;;4981712;28;20556;-61
2022/03/25 07:52:51;;;;;;;36.30;29.00;;;11.70;99.90;;;;;;4990299;28;20462;-61
2022/03/25 07:55:25;;;;;;;40.80;26.97;;;11.90;99.90;;;;;;4983880;28;20462;-61
2022/03/25 07:57:53;;;;;;;43.93;27.33;;;12.20;99.90;;;;;;5000117;28;20465;-61
2022/03/25 08:00:24;;;;;;;38.90;27.83;;;12.40;99.90;;;;;;4995944;28;20469;-61
2022/03/25 08:02:56;;;;;;;41.63;28.70;;;12.60;99.90;;;;;;5000933;28;20524;-61
2022/03/25 08:05:25;;;;;;;40.13;27.47;;;12.90;99.90;;;;;;4982498;28;20579;-61
2022/03/25 08:08:02;;;;;;;37.40;29.53;;;13.10;99.90;;;;;;4984393;28;20488;-61
2022/03/25 08:10:36;;;;;;;38.70;28.33;;;13.40;99.90;;;;;;4981375;28;20574;-61
2022/03/25 08:13:23;;;;;;;41.90;29.80;;;13.40;99.90;;;;;;4998176;28;20465;-61
2022/03/25 08:15:50;;;;;;;32.43;28.07;;;13.80;99.90;;;;;;4981733;28;20556;-61
2022/03/25 08:18:17;;;;;;;40.00;29.70;;;14.10;99.90;;;;;;4982552;28;20899;-61
2022/03/25 08:20:50;;;;;;;39.63;31.10;;;14.30;99.90;;;;;;4990174;28;20897;-61
2022/03/25 08:27:48;;;;;;;39.33;31.00;;;14.70;99.90;;;;;;4994265;28;20959;-61
2022/03/25 08:29:12;;;;;;;39.00;28.90;;;15.40;99.90;;;;;;4993046;28;20449;-61
2022/03/25 08:31:39;;;;;;;36.37;29.80;;;15.70;99.90;;;;;;4999360;28;20472;-61
2022/03/25 08:34:14;;;;;;;32.87;25.50;;;15.90;99.90;;;;;;4980340;28;20478;-61
2022/03/25 08:36:41;;;;;;;33.50;25.40;;;16.20;99.90;;;;;;4963966;28;20472;-61
2022/03/25 08:39:08;;;;;;;33.83;22.80;;;16.30;99.90;;;;;;4999670;28;20465;-62
2022/03/25 08:41:41;;;;;;;27.00;22.50;;;16.50;99.90;;;;;;4998386;28;20488;-61
2022/03/25 08:44:14;;;;;;;28.53;20.60;;;16.70;99.90;;;;;;4988013;28;20494;-61
2022/03/25 08:46:44;;;;;;;23.30;16.63;;;16.90;99.90;;;;;;4993130;28;20473;-61
2022/03/25 08:49:12;;;;;;;22.40;17.20;;;16.70;99.90;;;;;;4983139;28;20499;-61
2022/03/25 08:51:45;;;;;;;24.73;17.03;;;16.90;99.90;;;;;;4984629;28;20468;-61
2022/03/25 08:54:15;;;;;;;25.37;17.60;;;17.20;99.90;;;;;;4981610;28;20852;-61
2022/03/25 08:56:44;;;;;;;24.80;16.90;;;17.40;99.90;;;;;;4997968;28;20548;-61
2022/03/25 08:59:18;;;;;;;18.73;15.63;;;17.70;99.90;;;;;;4987134;28;20909;-62
2022/03/25 09:01:49;;;;;;;22.40;16.80;;;18.00;99.90;;;;;;4998116;28;20496;-62
2022/03/25 09:04:16;;;;;;;30.37;18.23;;;17.70;99.90;;;;;;4996413;28;20500;-61
2022/03/25 09:06:52;;;;;;;22.43;16.70;;;17.50;99.90;;;;;;4998511;28;20469;-61
2022/03/25 09:09:22;;;;;;;23.63;18.00;;;17.90;99.90;;;;;;4978914;28;20528;-61
2022/03/25 09:11:58;;;;;;;25.10;16.77;;;18.20;99.90;;;;;;4984258;28;20965;-61
2022/03/25 09:14:27;;;;;;;33.20;19.20;;;17.80;99.90;;;;;;4985638;28;20549;-61
2022/03/25 09:16:57;;;;;;;23.27;17.00;;;17.80;99.90;;;;;;4979829;28;20890;-61
2022/03/25 09:19:27;;;;;;;27.57;17.70;;;17.90;99.90;;;;;;4978741;28;20540;-61
2022/03/25 09:22:04;;;;;;;26.80;17.40;;;17.80;99.90;;;;;;4977448;28;20493;-61
2022/03/25 09:24:35;;;;;;;21.40;16.53;;;17.70;99.90;;;;;;4977267;28;20580;-62
2022/03/25 09:27:02;;;;;;;19.77;17.50;;;17.80;99.90;;;;;;4988991;28;20948;-61
2022/03/25 09:29:46;;;;;;;20.90;17.00;;;18.40;99.90;;;;;;4991079;28;20548;-61
2022/03/25 09:32:13;;;;;;;22.57;16.90;;;18.50;99.90;;;;;;4990930;28;20471;-61
2022/03/25 09:37:29;;;;;;;31.40;20.53;;;18.40;99.90;;;;;;4984700;28;20444;-61
2022/03/25 09:39:56;;;;;;;24.63;20.10;;;18.60;99.90;;;;;;4988017;28;20557;-61
2022/03/25 09:42:30;;;;;;;26.90;20.13;;;18.40;99.90;;;;;;4993851;28;20806;-61
2022/03/25 09:45:02;;;;;;;23.20;19.17;;;18.40;99.90;;;;;;4997510;28;20583;-61
2022/03/25 09:47:32;;;;;;;26.80;20.33;;;18.40;99.90;;;;;;4979029;28;20474;-60
2022/03/25 09:49:59;;;;;;;22.57;18.47;;;18.20;99.90;;;;;;4993136;28;20532;-61
2022/03/25 09:52:29;;;;;;;25.80;19.87;;;18.70;99.90;;;;;;4981348;28;20470;-61
2022/03/25 09:54:56;;;;;;;25.40;18.43;;;19.10;99.90;;;;;;4983449;28;20950;-61
2022/03/25 09:57:23;;;;;;;24.77;18.10;;;19.20;99.90;;;;;;4982296;28;20462;-60
2022/03/25 09:59:51;;;;;;;22.40;17.33;;;19.00;99.90;;;;;;4995788;28;20465;-61
2022/03/25 10:02:22;;;;;;;24.60;19.73;;;19.40;99.90;;;;;;4978642;28;20527;-61
2022/03/25 10:04:50;;;;;;;23.67;19.43;;;19.40;99.90;;;;;;4977010;28;20525;-61
2022/03/25 10:07:21;;;;;;;25.27;20.80;;;19.50;99.90;;;;;;4986951;28;20539;-61
2022/03/25 10:09:49;;;;;;;26.57;19.70;;;19.90;99.90;;;;;;4977179;28;20457;-62
2022/03/25 10:12:25;;;;;;;27.60;21.03;;;19.90;99.90;;;;;;4983732;28;20505;-61
2022/03/25 10:15:13;;;;;;;26.17;20.20;;;20.00;99.90;;;;;;4997243;28;20457;-61
2022/03/25 10:17:52;;;;;;;28.80;21.90;;;20.10;99.90;;;;;;4988331;28;20969;-61
2022/03/25 10:20:24;;;;;;;29.00;21.63;;;20.00;99.90;;;;;;4986145;28;20815;-61
2022/03/25 10:23:06;;;;;;;23.40;20.90;;;19.50;99.90;;;;;;4991784;28;20468;-61
2022/03/25 10:25:43;;;;;;;28.00;21.27;;;19.60;99.90;;;;;;4988792;28;20528;-60
2022/03/25 10:28:26;;;;;;;26.90;20.73;;;19.50;99.90;;;;;;4980880;28;20821;-60
2022/03/25 10:30:55;;;;;;;27.73;22.07;;;19.60;99.90;;;;;;4984635;28;20512;-60
2022/03/25 10:33:31;;;;;;;23.60;20.67;;;19.50;99.90;;;;;;4980848;28;20472;-61
2022/03/25 10:36:07;;;;;;;25.80;22.03;;;19.60;99.90;;;;;;4995494;28;20460;-61
2022/03/25 10:38:46;;;;;;;27.77;21.03;;;19.80;99.90;;;;;;4991584;28;20511;-61
2022/03/25 10:41:14;;;;;;;41.53;23.90;;;19.50;99.90;;;;;;4997802;28;20468;-60
2022/03/25 10:43:56;;;;;;;27.23;21.10;;;18.40;99.90;;;;;;4982207;28;20520;-60
2022/03/25 10:46:35;;;;;;;28.97;22.67;;;18.90;99.90;;;;;;4998727;28;20500;-61
2022/03/25 10:49:13;;;;;;;27.23;22.10;;;19.40;99.90;;;;;;4986818;28;20516;-61
2022/03/25 10:51:42;;;;;;;28.63;22.23;;;19.90;99.90;;;;;;4984325;28;20469;-61
2022/03/25 10:54:10;;;;;;;25.80;22.37;;;20.00;99.90;;;;;;4986286;28;20516;-60
2022/03/25 10:56:49;;;;;;;28.60;24.10;;;20.00;99.90;;;;;;4982076;28;20439;-61
2022/03/25 10:59:25;;;;;;;26.87;22.37;;;19.80;99.90;;;;;;4997608;28;20519;-60
2022/03/25 11:01:55;;;;;;;31.13;23.30;;;20.20;99.90;;;;;;4998585;28;20457;-60
2022/03/25 11:04:24;;;;;;;29.00;25.47;;;20.20;99.90;;;;;;4992650;28;20518;-60
2022/03/25 11:06:58;;;;;;;29.87;23.93;;;20.10;99.90;;;;;;4986273;28;20500;-60
2022/03/25 11:09:27;;;;;;;27.33;24.40;;;20.40;99.90;;;;;;4981478;28;20517;-60
2022/03/25 11:11:56;;;;;;;28.03;24.90;;;20.50;99.90;;;;;;4985313;28;20752;-61
2022/03/25 11:14:23;;;;;;;30.53;24.07;;;20.90;99.90;;;;;;4996812;28;20472;-60
2022/03/25 11:17:01;;;;;;;29.50;24.13;;;21.00;99.90;;;;;;4999312;28;20472;-60
2022/03/25 11:19:30;;;;;;;31.40;24.23;;;20.60;99.90;;;;;;4998263;28;20475;-60
2022/03/25 11:21:58;;;;;;;31.40;23.83;;;20.20;99.90;;;;;;4974156;28;20460;-60
2022/03/25 11:24:33;;;;;;;26.30;22.27;;;19.80;99.90;;;;;;4985654;28;20589;-60
2022/03/25 11:27:07;;;;;;;29.10;23.10;;;19.60;99.90;;;;;;4987969;28;20496;-61
2022/03/25 11:29:45;;;;;;;26.80;23.10;;;19.30;99.90;;;;;;4991828;28;20821;-61
2022/03/25 11:32:18;;;;;;;32.13;24.00;;;19.60;99.90;;;;;;4990457;28;20475;-61
2022/03/25 11:35:18;;;;;;;27.13;24.10;;;19.80;99.90;;;;;;4991261;28;20466;-61
2022/03/25 11:37:47;;;;;;;32.00;24.50;;;20.00;99.90;;;;;;4979509;28;20466;-60
2022/03/25 11:40:28;;;;;;;25.97;23.17;;;20.00;99.90;;;;;;4985823;28;20473;-59
2022/03/25 11:42:59;;;;;;;29.20;22.63;;;19.50;99.90;;;;;;4976901;28;20866;-60
2022/03/25 11:45:34;;;;;;;30.60;23.67;;;19.60;99.90;;;;;;4992288;28;20501;-57
2022/03/25 11:48:35;;;;;;;24.27;21.60;;;19.40;99.90;;;;;;4988337;28;20464;-59
2022/03/25 11:51:35;;;;;;;20.50;17.77;;;19.50;99.90;;;;;;4996659;28;20555;-59
2022/03/25 11:54:23;;;;;;;24.93;18.30;;;19.50;99.90;;;;;;4978208;28;20803;-59
2022/03/25 11:56:51;;;;;;;25.37;21.17;;;19.70;99.90;;;;;;4986463;28;20465;-59
2022/03/25 11:59:46;;;;;;;23.60;20.93;;;19.50;99.90;;;;;;4998340;28;20527;-59
2022/03/25 12:02:40;;;;;;;21.57;19.27;;;19.70;99.90;;;;;;4991208;28;20813;-60
2022/03/25 12:05:37;;;;;;;24.33;19.07;;;19.50;99.90;;;;;;4989485;28;20507;-59
2022/03/25 12:08:28;;;;;;;25.43;20.13;;;20.00;99.90;;;;;;4992660;28;20515;-57
2022/03/25 12:10:56;;;;;;;23.83;21.30;;;20.10;99.90;;;;;;4998682;28;20468;-59
2022/03/25 12:13:26;;;;;;;28.23;19.20;;;20.20;99.90;;;;;;4984012;28;20477;-59
2022/03/25 12:15:53;;;;;;;23.23;19.10;;;20.20;99.90;;;;;;4974769;28;20481;-59
2022/03/25 12:18:44;;;;;;;23.63;18.40;;;20.00;99.90;;;;;;4977775;28;20906;-59
2022/03/25 12:21:48;;;;;;;24.60;19.57;;;19.90;99.90;;;;;;4977705;28;20466;-59
2022/03/25 12:24:24;;;;;;;21.60;16.70;;;19.70;99.90;;;;;;4979440;28;20961;-59
2022/03/25 12:26:58;;;;;;;22.63;17.20;;;20.20;99.90;;;;;;4978031;28;20501;-59
2022/03/25 12:29:35;;;;;;;25.17;17.60;;;20.20;99.90;;;;;;4986674;28;20477;-60
2022/03/25 12:32:04;;;;;;;22.43;16.97;;;20.00;99.90;;;;;;4996499;28;20468;-61
2022/03/25 12:34:39;;;;;;;17.60;15.53;;;20.60;99.90;;;;;;4992693;28;20522;-61
2022/03/25 12:37:12;;;;;;;17.27;13.57;;;20.70;99.90;;;;;;4990338;28;20530;-60
2022/03/25 12:39:43;;;;;;;15.33;11.67;;;20.60;99.90;;;;;;4986800;28;20509;-60
2022/03/25 12:42:12;;;;;;;16.47;12.17;;;20.30;99.90;;;;;;4977999;28;20505;-60
2022/03/25 12:44:44;;;;;;;13.27;11.57;;;20.20;99.90;;;;;;4978196;28;20471;-61
2022/03/25 12:47:16;;;;;;;18.53;11.40;;;20.30;99.90;;;;;;4975761;28;20489;-59
2022/03/25 12:49:43;;;;;;;15.53;12.10;;;20.10;99.90;;;;;;4985507;28;20470;-60
2022/03/25 12:52:13;;;;;;;15.63;11.50;;;19.80;99.90;;;;;;4985937;28;20470;-61
2022/03/25 12:54:44;;;;;;;14.57;11.57;;;20.00;99.90;;;;;;4994188;28;20531;-60
2022/03/25 12:57:16;;;;;;;17.83;12.60;;;19.80;99.90;;;;;;4979748;28;20528;-60
2022/03/25 12:59:58;;;;;;;20.07;14.07;;;20.30;99.90;;;;;;4994692;28;20470;-61
2022/03/25 13:02:31;;;;;;;16.70;13.40;;;20.30;99.90;;;;;;4997220;28;20901;-61
2022/03/25 13:05:10;;;;;;;15.97;12.10;;;20.80;99.90;;;;;;4996939;28;20471;-60